Snow/Ice From: 17-12-2017 10:00 Until: 18-12-2017 06:00 warning for: Snow/Ice Level: Yellow info button

Although rather usual in this region, locally or potentially dangerous phenomena are expected. (such as local winds, summer thunderstorms, rising streams or high waves) Be aware and pay attention to the latest weather updates, especially if you carry out activities exposed to weather or close to a stream or shoreline. 


Meteo18 Weather Cam more information Meteo18 Weather Cam


Thunder radar more information blitzortung!


warning for Snow/Ice more information rain snow radar


Visit our other weather sites:

Template documentation
and downloads

And another site



Weather Underground History page Text

Daily Summary for June 12, 2017 Units:  English    Metric   Both
« Previous Day
Next Day »
Daily Weekly Monthly Yearly Custom
  High: Low: Average:
Temperature: 76.6 °F 60.4 °F 68.9 °F
Dew Point: 63 °F 50.9 °F 55.2 °F
Humidity: 87 % 42 % 63 %
Wind Speed: 9 mph 0 mph 2.6 mph
Wind Gust: 12 mph - -
Wind:- - West
Pressure: 30.2 in 30.1 in -
Precipitation: 0 in    
Historical Graphs
 
 
Tabular Data for June 12, 2017
Time Temperature Dew Point Pressure Wind Wind Speed Wind Gust Humidity Rainfall Rate (Hourly)
00:02 73.8 °F 63 °F 30.1 in NW 3 mph 7 mph 69 % 0 in
00:12 73.8 °F 63 °F 30.1 in NNW 1 mph 6 mph 69 % 0 in
00:17 73.8 °F 62.6 °F 30.1 in NNW 2 mph 6 mph 68 % 0 in
00:22 73.6 °F 62.4 °F 30.1 in WNW 2 mph 6 mph 68 % 0 in
00:32 73.4 °F 61 °F 30.1 in North 6 mph 7 mph 65 % 0 in
00:37 73.6 °F 59.4 °F 30.1 in WNW 7 mph 8 mph 61 % 0 in
00:42 73.8 °F 58.5 °F 30.1 in North 6 mph 11 mph 59 % 0 in
00:47 73.6 °F 58.3 °F 30.1 in NW 3 mph 11 mph 59 % 0 in
00:52 73.2 °F 58.1 °F 30.1 in NW 1 mph 11 mph 59 % 0 in
00:57 73 °F 58.3 °F 30.1 in NNW 4 mph 8 mph 60 % 0 in
01:02 72.9 °F 58.1 °F 30.1 in NNW 2 mph 9 mph 60 % 0 in
01:12 72.3 °F 58.1 °F 30.1 in WNW 3 mph 9 mph 61 % 0 in
01:17 72.1 °F 58.5 °F 30.1 in WNW 4 mph 8 mph 62 % 0 in
01:22 72.1 °F 58.5 °F 30.1 in WNW 1 mph 8 mph 62 % 0 in
01:27 71.8 °F 58.1 °F 30.1 in NW 3 mph 9 mph 62 % 0 in
01:32 71.8 °F 58.5 °F 30.1 in NW 2 mph 9 mph 63 % 0 in
01:37 71.8 °F 58.5 °F 30.1 in NNW 2 mph 8 mph 63 % 0 in
01:42 71.4 °F 58.6 °F 30.1 in North 3 mph 8 mph 64 % 0 in
01:47 71.2 °F 59.4 °F 30.1 in NNE 1 mph 7 mph 66 % 0 in
01:52 70.9 °F 59.4 °F 30.1 in North 2 mph 7 mph 67 % 0 in
01:57 70.5 °F 59 °F 30.1 in North 2 mph 6 mph 67 % 0 in
02:02 70.5 °F 59 °F 30.1 in NNW 1 mph 6 mph 67 % 0 in
02:07 70.5 °F 59 °F 30.1 in North 2 mph 4 mph 67 % 0 in
02:12 70.5 °F 59 °F 30.1 in Calm   5 mph 67 % 0 in
02:17 70.5 °F 59 °F 30.1 in North 1 mph 5 mph 67 % 0 in
02:22 70.3 °F 58.8 °F 30.1 in North 2 mph 5 mph 67 % 0 in
02:32 70.3 °F 59.4 °F 30.1 in Calm   5 mph 68 % 0 in
02:37 70.2 °F 59.2 °F 30.1 in NW 1 mph 5 mph 68 % 0 in
02:47 69.6 °F 59.4 °F 30.1 in NW 1 mph 3 mph 70 % 0 in
02:52 69.6 °F 59.4 °F 30.1 in Calm   4 mph 70 % 0 in
02:57 69.3 °F 59.5 °F 30.1 in WNW 2 mph 4 mph 71 % 0 in
03:02 69.1 °F 59.7 °F 30.1 in WNW 2 mph 4 mph 72 % 0 in
03:12 68.7 °F 59.7 °F 30.1 in Calm   3 mph 73 % 0 in
03:17 68.5 °F 59.5 °F 30.1 in Calm   3 mph 73 % 0 in
03:22 68.5 °F 59.9 °F 30.1 in Calm   3 mph 74 % 0 in
03:32 68.4 °F 60.1 °F 30.1 in Calm   3 mph 75 % 0 in
03:37 68.2 °F 60.3 °F 30.1 in West 1 mph 3 mph 76 % 0 in
03:42 68.2 °F 60.3 °F 30.1 in Calm   3 mph 76 % 0 in
03:47 68 °F 60.4 °F 30.1 in Calm   3 mph 77 % 0 in
03:52 68 °F 60.4 °F 30.1 in WNW 3 mph 4 mph 77 % 0 in
03:57 68 °F 60.4 °F 30.1 in NW 1 mph 5 mph 77 % 0 in
04:02 68 °F 60.4 °F 30.1 in West 1 mph 5 mph 77 % 0 in
04:07 67.8 °F 60.6 °F 30.1 in NW 2 mph 6 mph 78 % 0 in
04:17 67.5 °F 60.8 °F 30.1 in North 1 mph 6 mph 79 % 0 in
04:22 67.3 °F 61 °F 30.1 in NW 1 mph 6 mph 80 % 0 in
04:27 67.1 °F 60.8 °F 30.1 in NNW 1 mph 4 mph 80 % 0 in
04:32 66.9 °F 61 °F 30.1 in NNW 4 mph 6 mph 81 % 0 in
04:37 66.7 °F 60.8 °F 30.1 in North 4 mph 9 mph 81 % 0 in
04:42 66.6 °F 61 °F 30.1 in Calm   9 mph 82 % 0 in
04:47 66.4 °F 61 °F 30.1 in Calm   7 mph 83 % 0 in
04:52 66.2 °F 60.8 °F 30.1 in Calm   7 mph 83 % 0 in
04:57 66 °F 61 °F 30.1 in WNW 2 mph 4 mph 84 % 0 in
05:02 65.7 °F 60.6 °F 30.1 in NW 4 mph 4 mph 84 % 0 in
05:07 65.5 °F 60.8 °F 30.1 in WNW 3 mph 8 mph 85 % 0 in
05:17 64.9 °F 60.6 °F 30.1 in West 3 mph 8 mph 86 % 0 in
05:22 64.9 °F 60.6 °F 30.1 in NW 1 mph 8 mph 86 % 0 in
05:27 64.8 °F 60.8 °F 30.1 in West 2 mph 6 mph 87 % 0 in
05:32 64.6 °F 60.6 °F 30.1 in NNW 1 mph 6 mph 87 % 0 in
05:37 64.2 °F 60.3 °F 30.1 in Calm   6 mph 87 % 0 in
05:42 64.2 °F 60.3 °F 30.1 in NW 2 mph 6 mph 87 % 0 in
05:47 64 °F 60.1 °F 30.1 in WNW 1 mph 6 mph 87 % 0 in
05:52 64 °F 60.1 °F 30.1 in NW 2 mph 6 mph 87 % 0 in
05:57 63.9 °F 59.9 °F 30.1 in WNW 1 mph 8 mph 87 % 0 in
06:02 63.9 °F 59.9 °F 30.1 in NW 5 mph 8 mph 87 % 0 in
06:12 63.9 °F 59.9 °F 30.1 in West 1 mph 7 mph 87 % 0 in
06:17 63.7 °F 59.7 °F 30.1 in NW 5 mph 10 mph 87 % 0 in
06:22 63.5 °F 59.2 °F 30.1 in NNW 4 mph 10 mph 86 % 0 in
06:27 63.3 °F 59 °F 30.1 in NW 3 mph 10 mph 86 % 0 in
06:37 63.1 °F 58.6 °F 30.1 in Calm   7 mph 85 % 0 in
06:42 63.1 °F 58.3 °F 30.1 in NNE 3 mph 8 mph 84 % 0 in
06:47 63 °F 58.1 °F 30.1 in NNW 3 mph 8 mph 84 % 0 in
06:52 63 °F 58.1 °F 30.1 in NNW 3 mph 8 mph 84 % 0 in
06:57 62.8 °F 57.6 °F 30.1 in NNW 5 mph 8 mph 83 % 0 in
07:02 62.8 °F 57.2 °F 30.1 in NNW 7 mph 8 mph 82 % 0 in
07:07 62.8 °F 57.2 °F 30.1 in North 1 mph 8 mph 82 % 0 in
07:12 62.8 °F 57.2 °F 30.1 in NNW 1 mph 8 mph 82 % 0 in
07:17 63 °F 57 °F 30.1 in WNW 2 mph 8 mph 81 % 0 in
07:27 62.8 °F 56.5 °F 30.1 in WNW 1 mph 5 mph 80 % 0 in
07:32 62.4 °F 55.8 °F 30.1 in NW 3 mph 5 mph 79 % 0 in
07:42 62.8 °F 55 °F 30.2 in NNE 3 mph 6 mph 76 % 0 in
07:47 63 °F 54.9 °F 30.1 in North 6 mph 10 mph 75 % 0 in
07:57 63.3 °F 55.9 °F 30.2 in North 6 mph 10 mph 77 % 0 in
08:02 63.1 °F 56.1 °F 30.2 in NW 3 mph 10 mph 78 % 0 in
08:07 63.1 °F 56.1 °F 30.2 in NW 6 mph 11 mph 78 % 0 in
08:12 63 °F 55.9 °F 30.2 in WNW 3 mph 11 mph 78 % 0 in
08:17 62.8 °F 55.8 °F 30.2 in NNW 2 mph 10 mph 78 % 0 in
08:22 62.6 °F 55.2 °F 30.2 in NW 3 mph 10 mph 77 % 0 in
08:32 62.6 °F 55.2 °F 30.2 in NW 7 mph 11 mph 77 % 0 in
08:37 62.6 °F 54.9 °F 30.2 in NNW 3 mph 11 mph 76 % 0 in
08:42 62.8 °F 55 °F 30.2 in Calm   11 mph 76 % 0 in
08:47 62.8 °F 54.7 °F 30.2 in NNE 2 mph 10 mph 75 % 0 in
08:52 62.8 °F 54.3 °F 30.2 in NNW 2 mph 10 mph 74 % 0 in
08:57 62.6 °F 54.5 °F 30.2 in North 3 mph 9 mph 75 % 0 in
09:02 62.6 °F 54.5 °F 30.2 in North 1 mph 9 mph 75 % 0 in
09:12 63 °F 54.1 °F 30.2 in NNW 1 mph 8 mph 73 % 0 in
09:17 63.7 °F 54.9 °F 30.2 in NNW 7 mph 11 mph 73 % 0 in
09:22 63.9 °F 54.3 °F 30.2 in NNE 6 mph 11 mph 71 % 0 in
09:32 64.2 °F 55 °F 30.2 in SW 2 mph 10 mph 72 % 0 in
09:37 64.2 °F 54.7 °F 30.2 in North 3 mph 10 mph 71 % 0 in
09:42 64.4 °F 54.9 °F 30.2 in NNW 5 mph 10 mph 71 % 0 in
09:47 64.6 °F 54.1 °F 30.2 in WNW 4 mph 12 mph 69 % 0 in
09:52 64.6 °F 53.4 °F 30.2 in NW 3 mph 12 mph 67 % 0 in
10:02 65.1 °F 53.4 °F 30.2 in NW 8 mph 11 mph 66 % 0 in
10:07 64.9 °F 53.8 °F 30.2 in NNW 5 mph 11 mph 67 % 0 in
10:12 65.1 °F 54.7 °F 30.2 in NNW 3 mph 11 mph 69 % 0 in
10:17 65.5 °F 54.3 °F 30.2 in North 8 mph 11 mph 67 % 0 in
10:22 65.5 °F 54.3 °F 30.2 in NW 6 mph 11 mph 67 % 0 in
10:32 65.7 °F 54.3 °F 30.2 in WNW 2 mph 10 mph 67 % 0 in
10:37 65.8 °F 55 °F 30.2 in North 7 mph 9 mph 68 % 0 in
10:42 66 °F 54.7 °F 30.2 in NNE 4 mph 9 mph 67 % 0 in
10:47 66.2 °F 54.1 °F 30.2 in NW 3 mph 10 mph 65 % 0 in
10:52 66.4 °F 53.4 °F 30.2 in NNW 5 mph 10 mph 63 % 0 in
10:57 66.2 °F 53.2 °F 30.2 in NW 3 mph 10 mph 63 % 0 in
11:02 66 °F 52.2 °F 30.2 in NNW 7 mph 10 mph 61 % 0 in
11:07 66.4 °F 52.9 °F 30.2 in NW 3 mph 9 mph 62 % 0 in
11:12 66.7 °F 53.2 °F 30.2 in NW 5 mph 9 mph 62 % 0 in
11:17 66.9 °F 53.1 °F 30.2 in NNW 3 mph 9 mph 61 % 0 in
11:22 67.6 °F 54.1 °F 30.2 in NE 2 mph 9 mph 62 % 0 in
11:32 67.5 °F 53.6 °F 30.2 in NNE 4 mph 9 mph 61 % 0 in
11:42 67.6 °F 54.1 °F 30.2 in NNE 1 mph 9 mph 62 % 0 in
11:47 67.8 °F 53.4 °F 30.2 in NW 1 mph 10 mph 60 % 0 in
11:52 68.4 °F 54.3 °F 30.2 in NW 5 mph 10 mph 61 % 0 in
12:02 68.5 °F 54.1 °F 30.2 in West 6 mph 9 mph 60 % 0 in
12:12 67.8 °F 54 °F 30.2 in NNW 3 mph 10 mph 61 % 0 in
12:17 68.4 °F 54.3 °F 30.2 in North 3 mph 10 mph 61 % 0 in
12:22 68.4 °F 53.4 °F 30.2 in West 1 mph 10 mph 59 % 0 in
12:32 69.3 °F 54.9 °F 30.2 in NW 3 mph 11 mph 60 % 0 in
12:37 69.4 °F 54.5 °F 30.2 in West 5 mph 10 mph 59 % 0 in
12:42 69.3 °F 54.3 °F 30.2 in NW 9 mph 10 mph 59 % 0 in
12:47 68.7 °F 53.8 °F 30.2 in Calm   11 mph 59 % 0 in
12:52 69.4 °F 54.5 °F 30.2 in West 2 mph 11 mph 59 % 0 in
12:57 69.6 °F 54.7 °F 30.2 in NW 4 mph 11 mph 59 % 0 in
13:02 70 °F 54 °F 30.2 in NNW 5 mph 11 mph 57 % 0 in
13:12 70.9 °F 54.9 °F 30.2 in NNE 2 mph 10 mph 57 % 0 in
13:17 70.3 °F 54 °F 30.2 in Calm   11 mph 56 % 0 in
13:22 70.7 °F 55.2 °F 30.2 in NNW 4 mph 11 mph 58 % 0 in
13:27 70.9 °F 55.8 °F 30.2 in NNW 3 mph 11 mph 59 % 0 in
13:32 71.2 °F 54.3 °F 30.2 in WNW 6 mph 8 mph 55 % 0 in
13:37 70.5 °F 54.5 °F 30.2 in NNW 2 mph 8 mph 57 % 0 in
13:42 70.9 °F 54.3 °F 30.2 in WNW 3 mph 8 mph 56 % 0 in
13:47 70.9 °F 53.4 °F 30.2 in NNE 2 mph 9 mph 54 % 0 in
13:52 71.6 °F 54.5 °F 30.2 in NW 3 mph 9 mph 55 % 0 in
13:57 71.1 °F 53.6 °F 30.2 in North 3 mph 10 mph 54 % 0 in
14:02 71.2 °F 54.3 °F 30.2 in NW 4 mph 10 mph 55 % 0 in
14:07 72 °F 53.4 °F 30.2 in WSW 3 mph 10 mph 52 % 0 in
14:12 72.3 °F 53.2 °F 30.2 in WSW 6 mph 8 mph 51 % 0 in
14:17 72 °F 52.9 °F 30.2 in SW 4 mph 10 mph 51 % 0 in
14:22 72 °F 51.3 °F 30.2 in West 3 mph 10 mph 48 % 0 in
14:32 72.7 °F 54 °F 30.2 in NW 2 mph 8 mph 52 % 0 in
14:37 72.9 °F 53.6 °F 30.2 in WNW 6 mph 10 mph 51 % 0 in
14:42 72 °F 52.3 °F 30.2 in West 1 mph 12 mph 50 % 0 in
14:52 72.7 °F 53.4 °F 30.2 in NE 2 mph 12 mph 51 % 0 in
14:57 72.9 °F 53.1 °F 30.2 in West 4 mph 8 mph 50 % 0 in
15:02 73.2 °F 53.4 °F 30.2 in NNE 7 mph 10 mph 50 % 0 in
15:07 73.4 °F 52.5 °F 30.2 in WNW 4 mph 10 mph 48 % 0 in
15:12 73.2 °F 52.9 °F 30.2 in West 1 mph 9 mph 49 % 0 in
15:22 73.6 °F 52.7 °F 30.2 in WSW 3 mph 9 mph 48 % 0 in
15:27 73.8 °F 52.9 °F 30.2 in WNW 3 mph 9 mph 48 % 0 in
15:32 73.6 °F 51.4 °F 30.2 in SSE 3 mph 9 mph 46 % 0 in
15:42 74.7 °F 52.5 °F 30.2 in WNW 1 mph 7 mph 46 % 0 in
15:52 74.7 °F 51.3 °F 30.2 in SW 1 mph 8 mph 44 % 0 in
15:57 74.7 °F 52.5 °F 30.2 in WSW 4 mph 8 mph 46 % 0 in
16:02 74.3 °F 51.6 °F 30.2 in NNW 2 mph 8 mph 45 % 0 in
16:12 74.8 °F 53.2 °F 30.2 in West 2 mph 7 mph 47 % 0 in
16:17 74.5 °F 51.8 °F 30.2 in Calm   9 mph 45 % 0 in
16:22 74.7 °F 52 °F 30.2 in WNW 4 mph 9 mph 45 % 0 in
16:32 74.8 °F 51.4 °F 30.2 in NW 1 mph 7 mph 44 % 0 in
16:37 74.8 °F 51.4 °F 30.2 in WNW 4 mph 9 mph 44 % 0 in
16:42 74.7 °F 51.3 °F 30.2 in West 4 mph 9 mph 44 % 0 in
16:47 74.8 °F 50.9 °F 30.1 in Calm   8 mph 43 % 0 in
16:52 75.7 °F 51.6 °F 30.1 in WNW 5 mph 8 mph 43 % 0 in
16:57 76.1 °F 52 °F 30.1 in NW 2 mph 9 mph 43 % 0 in
17:02 75.9 °F 51.8 °F 30.1 in WNW 2 mph 9 mph 43 % 0 in
17:12 75.6 °F 51.4 °F 30.1 in North 2 mph 9 mph 43 % 0 in
17:17 75 °F 51.1 °F 30.1 in ENE 2 mph 8 mph 43 % 0 in
17:22 75 °F 51.6 °F 30.1 in NNW 4 mph 8 mph 44 % 0 in
17:32 75.7 °F 51.1 °F 30.1 in SSW 2 mph 8 mph 42 % 0 in
17:42 76.5 °F 52.3 °F 30.1 in Calm   4 mph 43 % 0 in
17:47 76.6 °F 52.5 °F 30.1 in NNW 4 mph 5 mph 43 % 0 in
17:52 76.3 °F 52.2 °F 30.1 in WSW 3 mph 5 mph 43 % 0 in
17:57 75.9 °F 52.5 °F 30.1 in WNW 4 mph 5 mph 44 % 0 in
18:02 75.6 °F 52.7 °F 30.1 in WNW 2 mph 8 mph 45 % 0 in
18:07 75.7 °F 53.4 °F 30.1 in WNW 6 mph 8 mph 46 % 0 in
18:12 75.4 °F 52.5 °F 30.1 in West 3 mph 9 mph 45 % 0 in
18:17 75.4 °F 52 °F 30.1 in Calm   9 mph 44 % 0 in
18:22 75.6 °F 53.2 °F 30.1 in WNW 4 mph 9 mph 46 % 0 in
18:27 75.4 °F 52 °F 30.1 in West 2 mph 9 mph 44 % 0 in
18:32 75.7 °F 53.4 °F 30.1 in WNW 5 mph 9 mph 46 % 0 in
18:42 75.4 °F 53.2 °F 30.1 in WNW 3 mph 8 mph 46 % 0 in
18:47 75.9 °F 53.1 °F 30.1 in Calm   8 mph 45 % 0 in
18:52 75.7 °F 52.9 °F 30.1 in WNW 2 mph 8 mph 45 % 0 in
18:57 75.6 °F 54.5 °F 30.1 in WNW 1 mph 8 mph 48 % 0 in
19:02 75.4 °F 53.8 °F 30.1 in WNW 4 mph 8 mph 47 % 0 in
19:07 75.6 °F 53.2 °F 30.1 in NW 2 mph 8 mph 46 % 0 in
19:12 75.4 °F 52.5 °F 30.1 in NNE 4 mph 8 mph 45 % 0 in
19:17 75.4 °F 53.2 °F 30.1 in WNW 2 mph 8 mph 46 % 0 in
19:22 75.6 °F 52.7 °F 30.1 in WNW 1 mph 6 mph 45 % 0 in
19:27 74.8 °F 52.7 °F 30.1 in North 5 mph 6 mph 46 % 0 in
19:32 74.3 °F 52.2 °F 30.1 in NNW 3 mph 10 mph 46 % 0 in
19:37 74.5 °F 52.9 °F 30.1 in WSW 1 mph 10 mph 47 % 0 in
19:42 74.7 °F 52.5 °F 30.1 in NW 2 mph 10 mph 46 % 0 in
19:47 75 °F 52.2 °F 30.1 in NNW 3 mph 5 mph 45 % 0 in
19:52 74.5 °F 51.8 °F 30.1 in NNW 6 mph 6 mph 45 % 0 in
19:57 74.1 °F 52 °F 30.1 in NW 1 mph 7 mph 46 % 0 in
20:02 74.5 °F 52.3 °F 30.1 in NW 2 mph 7 mph 46 % 0 in
20:07 74.5 °F 52.3 °F 30.1 in Calm   6 mph 46 % 0 in
20:12 74.7 °F 52.5 °F 30.1 in West 1 mph 4 mph 46 % 0 in
20:17 74.5 °F 51.8 °F 30.1 in NNW 2 mph 4 mph 45 % 0 in
20:22 74.1 °F 52.5 °F 30.1 in North 3 mph 4 mph 47 % 0 in
20:32 72.9 °F 53.1 °F 30.1 in NNE 2 mph 5 mph 50 % 0 in
20:37 72.3 °F 53.8 °F 30.1 in ENE 2 mph 5 mph 52 % 0 in
20:42 71.6 °F 53.6 °F 30.1 in NNE 2 mph 6 mph 53 % 0 in
20:52 70.9 °F 52.9 °F 30.1 in NNW 1 mph 7 mph 53 % 0 in
20:57 70.7 °F 52.7 °F 30.1 in NNW 3 mph 7 mph 53 % 0 in
21:07 70.2 °F 52.7 °F 30.1 in NNW 2 mph 7 mph 54 % 0 in
21:12 70 °F 53.1 °F 30.1 in North 1 mph 7 mph 55 % 0 in
21:17 69.6 °F 53.2 °F 30.1 in NNW 1 mph 4 mph 56 % 0 in
21:22 69.1 °F 52.7 °F 30.1 in NNW 2 mph 4 mph 56 % 0 in
21:27 68.5 °F 52.7 °F 30.1 in Calm   4 mph 57 % 0 in
21:32 67.8 °F 52 °F 30.1 in NNW 3 mph 4 mph 57 % 0 in
21:42 66.7 °F 52 °F 30.1 in North 2 mph 4 mph 59 % 0 in
21:47 66.2 °F 52 °F 30.1 in NNW 1 mph 4 mph 60 % 0 in
21:52 65.8 °F 52 °F 30.1 in NNW 2 mph 4 mph 61 % 0 in
21:57 65.5 °F 52.2 °F 30.1 in NNW 1 mph 3 mph 62 % 0 in
22:02 64.9 °F 51.6 °F 30.1 in North 1 mph 2 mph 62 % 0 in
22:12 64.6 °F 52.2 °F 30.1 in North 1 mph 4 mph 64 % 0 in
22:22 64 °F 52.5 °F 30.1 in North 2 mph 4 mph 66 % 0 in
22:32 63.3 °F 52.2 °F 30.1 in Calm   2 mph 67 % 0 in
22:42 62.6 °F 52.3 °F 30.1 in Calm   1 mph 69 % 0 in
22:47 62.2 °F 52.3 °F 30.1 in NE 3 mph 3 mph 70 % 0 in
22:52 62.1 °F 52.5 °F 30.1 in NNW 1 mph 3 mph 71 % 0 in
23:02 61.2 °F 52.5 °F 30.1 in NNE 3 mph 5 mph 73 % 0 in
23:07 61.2 °F 52.5 °F 30.1 in NNW 2 mph 5 mph 73 % 0 in
23:12 61.2 °F 52.5 °F 30.1 in NNW 2 mph 6 mph 73 % 0 in
23:17 61 °F 52.3 °F 30.1 in North 2 mph 6 mph 73 % 0 in
23:22 61 °F 52.3 °F 30.1 in NE 3 mph 4 mph 73 % 0 in
23:32 60.6 °F 52 °F 30.1 in NNE 2 mph 6 mph 73 % 0 in
23:37 60.4 °F 52.2 °F 30.1 in Calm   6 mph 74 % 0 in
23:42 60.4 °F 52.2 °F 30.1 in NNW 1 mph 5 mph 74 % 0 in
23:47 60.6 °F 52 °F 30.1 in NW 2 mph 5 mph 73 % 0 in
23:52 60.8 °F 51.8 °F 30.1 in NNW 1 mph 4 mph 72 % 0 in
23:57 60.6 °F 52 °F 30.1 in North 3 mph 4 mph 73 % 0 in
Meteo18
Compliments of Weather Underground - 4 mb

Script developed by  Jim McMurry - jmcmurry@mwt.net Adapted for the template by  Wim van der Kuil - Leuven-Template.eu

You find our weather info also at:

European Weather Network

Weather Underground

Equipment we use:

Weather-station
Davis Vue

Weather-program
Meteohub

Weather-server
Raspberry PI 2 B+

Provider
1 and 1

Davis Vue

Meteohub

Raspberry PI 2 B+

1 and 1